Westgate, Iowa
Current Conditions -  °F | °C
As of 1:55 AM on Wednesday 26 Nov 2014 (Local Time) from KOLZ Reporting Station
Overcast Overcast  
Wind Chill:   Ceiling: 6000
Heat Index: 21°   Visibility: 10mi
Dew Point: 18°   Wind: 15mph
Humidity: 86%   Direction: 130°SE
Pressure: 30.03"   Gusts: NA
Location:  42.77°N, 92°W
Report Text: KOLZ 260755Z AUTO 13013KT 10SM BKN060 OVC080 M06/M08 A3003 RMK AO2
Loading
Personal Weather Stations






























Interactive Weather Map New forecast layout! Learn more

10-Day Weather Forecast

Advertisements
Track Severe Weather on mobile